Schaijk, Netherlands
Current Conditions -  °F | °C
As of 2:29 AM on Wednesday 28 Jan 2015 (Local Time) from EHVK Reporting Station
Haze Haze  
Wind Chill: 32°   Ceiling: 2200
Heat Index: 39°   Visibility: 4mi
Dew Point: 37°   Wind: 12mph
Humidity: 93%   Direction: 220°SW
Pressure: 30.06"   Gusts: NA
Location:  51.75°N, 5.63°E
Report Text: EHVK 280129Z AUTO 22010KT 6000 BR SCT018 BKN022 BKN026 04/03 Q1018 WHT
Loading
Personal Weather Stations






























Interactive Weather Map New forecast layout! Learn more

10-Day Weather Forecast

Advertisements
Track Severe Weather on mobile